sensor_id;sensor_type;location;lat;lon;timestamp;temperature;humidity
11764;DHT22;5939;56.522;14.950;2024-02-14T00:02:11;3.10;99.90
11764;DHT22;5939;56.522;14.950;2024-02-14T00:04:37;3.10;99.90
11764;DHT22;5939;56.522;14.950;2024-02-14T00:07:04;3.10;99.90
11764;DHT22;5939;56.522;14.950;2024-02-14T00:09:30;3.20;99.90
11764;DHT22;5939;56.522;14.950;2024-02-14T00:11:56;3.10;99.90
11764;DHT22;5939;56.522;14.950;2024-02-14T00:14:22;3.10;99.90
11764;DHT22;5939;56.522;14.950;2024-02-14T00:16:47;3.10;99.90
11764;DHT22;5939;56.522;14.950;2024-02-14T00:19:13;3.10;99.90
11764;DHT22;5939;56.522;14.950;2024-02-14T00:21:39;3.20;99.90
11764;DHT22;5939;56.522;14.950;2024-02-14T00:24:05;3.10;99.90
11764;DHT22;5939;56.522;14.950;2024-02-14T00:26:31;3.10;99.90
11764;DHT22;5939;56.522;14.950;2024-02-14T00:28:57;3.10;99.90
11764;DHT22;5939;56.522;14.950;2024-02-14T00:31:22;3.10;99.90
11764;DHT22;5939;56.522;14.950;2024-02-14T00:33:48;3.10;99.90
11764;DHT22;5939;56.522;14.950;2024-02-14T00:36:14;3.10;99.90
11764;DHT22;5939;56.522;14.950;2024-02-14T00:38:40;3.20;99.90
11764;DHT22;5939;56.522;14.950;2024-02-14T00:41:05;3.20;99.90
11764;DHT22;5939;56.522;14.950;2024-02-14T00:43:31;3.10;99.90
11764;DHT22;5939;56.522;14.950;2024-02-14T00:45:57;3.10;99.90
11764;DHT22;5939;56.522;14.950;2024-02-14T00:48:23;3.10;99.90
11764;DHT22;5939;56.522;14.950;2024-02-14T00:50:49;3.20;99.90
11764;DHT22;5939;56.522;14.950;2024-02-14T00:53:15;3.10;99.90
11764;DHT22;5939;56.522;14.950;2024-02-14T00:55:40;3.10;99.90
11764;DHT22;5939;56.522;14.950;2024-02-14T00:58:06;3.10;99.90
11764;DHT22;5939;56.522;14.950;2024-02-14T01:00:32;3.10;99.90
11764;DHT22;5939;56.522;14.950;2024-02-14T01:02:58;3.10;99.90
11764;DHT22;5939;56.522;14.950;2024-02-14T01:05:24;3.10;99.90
11764;DHT22;5939;56.522;14.950;2024-02-14T01:07:50;3.10;99.90
11764;DHT22;5939;56.522;14.950;2024-02-14T01:10:16;3.10;99.90
11764;DHT22;5939;56.522;14.950;2024-02-14T01:12:43;3.10;99.90
11764;DHT22;5939;56.522;14.950;2024-02-14T01:15:09;3.10;99.90
11764;DHT22;5939;56.522;14.950;2024-02-14T01:17:35;3.10;99.90
11764;DHT22;5939;56.522;14.950;2024-02-14T01:20:02;3.10;99.90
11764;DHT22;5939;56.522;14.950;2024-02-14T01:22:28;3.10;99.90
11764;DHT22;5939;56.522;14.950;2024-02-14T01:24:54;3.10;99.90
11764;DHT22;5939;56.522;14.950;2024-02-14T01:27:20;3.10;99.90
11764;DHT22;5939;56.522;14.950;2024-02-14T01:29:48;3.10;99.90
11764;DHT22;5939;56.522;14.950;2024-02-14T01:32:13;3.10;99.90
11764;DHT22;5939;56.522;14.950;2024-02-14T01:34:39;3.10;99.90
11764;DHT22;5939;56.522;14.950;2024-02-14T01:37:05;3.10;99.90
11764;DHT22;5939;56.522;14.950;2024-02-14T01:39:31;3.10;99.90
11764;DHT22;5939;56.522;14.950;2024-02-14T01:41:57;3.10;99.90
11764;DHT22;5939;56.522;14.950;2024-02-14T01:44:23;3.10;99.90
11764;DHT22;5939;56.522;14.950;2024-02-14T01:46:48;3.10;99.90
11764;DHT22;5939;56.522;14.950;2024-02-14T01:49:15;3.10;99.90
11764;DHT22;5939;56.522;14.950;2024-02-14T01:51:43;3.10;99.90
11764;DHT22;5939;56.522;14.950;2024-02-14T01:54:11;3.10;99.90
11764;DHT22;5939;56.522;14.950;2024-02-14T01:56:39;3.10;99.90
11764;DHT22;5939;56.522;14.950;2024-02-14T01:59:05;3.10;99.90
11764;DHT22;5939;56.522;14.950;2024-02-14T02:01:32;3.10;99.90
11764;DHT22;5939;56.522;14.950;2024-02-14T02:03:58;3.10;99.90
11764;DHT22;5939;56.522;14.950;2024-02-14T02:06:24;3.20;99.90
11764;DHT22;5939;56.522;14.950;2024-02-14T02:08:51;3.10;99.90
11764;DHT22;5939;56.522;14.950;2024-02-14T02:11:17;3.10;99.90
11764;DHT22;5939;56.522;14.950;2024-02-14T02:13:43;3.10;99.90
11764;DHT22;5939;56.522;14.950;2024-02-14T02:16:09;3.10;99.90
11764;DHT22;5939;56.522;14.950;2024-02-14T02:18:35;3.10;99.90
11764;DHT22;5939;56.522;14.950;2024-02-14T02:21:01;3.10;99.90
11764;DHT22;5939;56.522;14.950;2024-02-14T02:23:29;3.10;99.90
11764;DHT22;5939;56.522;14.950;2024-02-14T02:25:56;3.10;99.90
11764;DHT22;5939;56.522;14.950;2024-02-14T02:28:22;3.10;99.90
11764;DHT22;5939;56.522;14.950;2024-02-14T02:30:48;3.10;99.90
11764;DHT22;5939;56.522;14.950;2024-02-14T02:33:13;3.10;99.90
11764;DHT22;5939;56.522;14.950;2024-02-14T02:35:42;3.10;99.90
11764;DHT22;5939;56.522;14.950;2024-02-14T02:38:07;3.10;99.90
11764;DHT22;5939;56.522;14.950;2024-02-14T02:40:33;3.10;99.90
11764;DHT22;5939;56.522;14.950;2024-02-14T02:42:59;3.10;99.90
11764;DHT22;5939;56.522;14.950;2024-02-14T02:45:25;3.10;99.90
11764;DHT22;5939;56.522;14.950;2024-02-14T02:47:51;3.10;99.90
11764;DHT22;5939;56.522;14.950;2024-02-14T02:50:17;3.10;99.90
11764;DHT22;5939;56.522;14.950;2024-02-14T02:52:43;3.10;99.90
11764;DHT22;5939;56.522;14.950;2024-02-14T02:55:09;3.10;99.90
11764;DHT22;5939;56.522;14.950;2024-02-14T02:57:35;3.10;99.90
11764;DHT22;5939;56.522;14.950;2024-02-14T03:00:03;3.10;99.90
11764;DHT22;5939;56.522;14.950;2024-02-14T03:02:30;3.10;99.90
11764;DHT22;5939;56.522;14.950;2024-02-14T03:04:56;3.10;99.90
11764;DHT22;5939;56.522;14.950;2024-02-14T03:07:22;3.10;99.90
11764;DHT22;5939;56.522;14.950;2024-02-14T03:09:49;3.10;99.90
11764;DHT22;5939;56.522;14.950;2024-02-14T03:12:14;3.10;99.90
11764;DHT22;5939;56.522;14.950;2024-02-14T03:14:44;3.10;99.90
11764;DHT22;5939;56.522;14.950;2024-02-14T03:17:10;3.10;99.90
11764;DHT22;5939;56.522;14.950;2024-02-14T03:19:36;3.10;99.90
11764;DHT22;5939;56.522;14.950;2024-02-14T03:22:04;3.00;99.90
11764;DHT22;5939;56.522;14.950;2024-02-14T03:24:31;3.10;99.90
11764;DHT22;5939;56.522;14.950;2024-02-14T03:26:57;3.10;99.90
11764;DHT22;5939;56.522;14.950;2024-02-14T03:29:22;3.10;99.90
11764;DHT22;5939;56.522;14.950;2024-02-14T03:31:48;3.10;99.90
11764;DHT22;5939;56.522;14.950;2024-02-14T03:34:14;3.10;99.90
11764;DHT22;5939;56.522;14.950;2024-02-14T03:36:40;3.10;99.90
11764;DHT22;5939;56.522;14.950;2024-02-14T03:39:06;3.10;99.90
11764;DHT22;5939;56.522;14.950;2024-02-14T03:41:32;3.10;99.90
11764;DHT22;5939;56.522;14.950;2024-02-14T03:43:58;3.10;99.90
11764;DHT22;5939;56.522;14.950;2024-02-14T03:46:27;3.10;99.90
11764;DHT22;5939;56.522;14.950;2024-02-14T03:48:56;3.10;99.90
11764;DHT22;5939;56.522;14.950;2024-02-14T03:51:25;3.10;99.90
11764;DHT22;5939;56.522;14.950;2024-02-14T03:53:50;3.10;99.90
11764;DHT22;5939;56.522;14.950;2024-02-14T03:56:16;3.10;99.90
11764;DHT22;5939;56.522;14.950;2024-02-14T03:58:42;3.10;99.90
11764;DHT22;5939;56.522;14.950;2024-02-14T04:01:08;3.10;99.90
11764;DHT22;5939;56.522;14.950;2024-02-14T04:03:34;3.10;99.90
11764;DHT22;5939;56.522;14.950;2024-02-14T04:06:00;3.10;99.90
11764;DHT22;5939;56.522;14.950;2024-02-14T04:08:26;3.10;99.90
11764;DHT22;5939;56.522;14.950;2024-02-14T04:10:52;3.10;99.90
11764;DHT22;5939;56.522;14.950;2024-02-14T04:13:20;3.10;99.90
11764;DHT22;5939;56.522;14.950;2024-02-14T04:15:46;3.10;99.90
11764;DHT22;5939;56.522;14.950;2024-02-14T04:18:13;3.10;99.90
11764;DHT22;5939;56.522;14.950;2024-02-14T04:20:40;3.10;99.90
11764;DHT22;5939;56.522;14.950;2024-02-14T04:23:06;3.10;99.90
11764;DHT22;5939;56.522;14.950;2024-02-14T04:25:33;3.10;99.90
11764;DHT22;5939;56.522;14.950;2024-02-14T04:27:59;3.10;99.90
11764;DHT22;5939;56.522;14.950;2024-02-14T04:30:26;3.10;99.90
11764;DHT22;5939;56.522;14.950;2024-02-14T04:32:52;3.10;99.90
11764;DHT22;5939;56.522;14.950;2024-02-14T04:35:21;3.10;99.90
11764;DHT22;5939;56.522;14.950;2024-02-14T04:37:47;3.10;99.90
11764;DHT22;5939;56.522;14.950;2024-02-14T04:40:14;3.10;99.90
11764;DHT22;5939;56.522;14.950;2024-02-14T04:42:41;3.10;99.90
11764;DHT22;5939;56.522;14.950;2024-02-14T04:45:07;3.10;99.90
11764;DHT22;5939;56.522;14.950;2024-02-14T04:47:33;3.10;99.90
11764;DHT22;5939;56.522;14.950;2024-02-14T04:49:59;3.10;99.90
11764;DHT22;5939;56.522;14.950;2024-02-14T04:52:26;3.10;99.90
11764;DHT22;5939;56.522;14.950;2024-02-14T04:54:52;3.10;99.90
11764;DHT22;5939;56.522;14.950;2024-02-14T04:57:18;3.10;99.90
11764;DHT22;5939;56.522;14.950;2024-02-14T04:59:46;3.10;99.90
11764;DHT22;5939;56.522;14.950;2024-02-14T05:02:11;3.00;99.90
11764;DHT22;5939;56.522;14.950;2024-02-14T05:04:37;3.10;99.90
11764;DHT22;5939;56.522;14.950;2024-02-14T05:07:04;3.10;99.90
11764;DHT22;5939;56.522;14.950;2024-02-14T05:09:30;3.10;99.90
11764;DHT22;5939;56.522;14.950;2024-02-14T05:11:56;3.10;99.90
11764;DHT22;5939;56.522;14.950;2024-02-14T05:14:22;3.10;99.90
11764;DHT22;5939;56.522;14.950;2024-02-14T05:16:47;3.10;99.90
11764;DHT22;5939;56.522;14.950;2024-02-14T05:19:13;3.10;99.90
11764;DHT22;5939;56.522;14.950;2024-02-14T05:21:39;3.00;99.90
11764;DHT22;5939;56.522;14.950;2024-02-14T05:24:05;3.20;99.90
11764;DHT22;5939;56.522;14.950;2024-02-14T05:26:32;3.10;99.90
11764;DHT22;5939;56.522;14.950;2024-02-14T05:28:57;3.10;99.90
11764;DHT22;5939;56.522;14.950;2024-02-14T05:31:24;3.10;99.90
11764;DHT22;5939;56.522;14.950;2024-02-14T05:33:50;3.10;99.90
11764;DHT22;5939;56.522;14.950;2024-02-14T05:36:16;3.10;99.90
11764;DHT22;5939;56.522;14.950;2024-02-14T05:38:42;3.10;99.90
11764;DHT22;5939;56.522;14.950;2024-02-14T05:41:08;3.10;99.90
11764;DHT22;5939;56.522;14.950;2024-02-14T05:43:34;3.10;99.90
11764;DHT22;5939;56.522;14.950;2024-02-14T05:46:00;3.10;99.90
11764;DHT22;5939;56.522;14.950;2024-02-14T05:48:25;3.10;99.90
11764;DHT22;5939;56.522;14.950;2024-02-14T05:50:51;3.10;99.90
11764;DHT22;5939;56.522;14.950;2024-02-14T05:53:17;3.10;99.90
11764;DHT22;5939;56.522;14.950;2024-02-14T05:55:43;3.10;99.90
11764;DHT22;5939;56.522;14.950;2024-02-14T05:58:08;3.10;99.90
11764;DHT22;5939;56.522;14.950;2024-02-14T06:00:34;3.10;99.90
11764;DHT22;5939;56.522;14.950;2024-02-14T06:03:00;3.10;99.90
11764;DHT22;5939;56.522;14.950;2024-02-14T06:05:26;3.10;99.90
11764;DHT22;5939;56.522;14.950;2024-02-14T06:07:51;3.10;99.90
11764;DHT22;5939;56.522;14.950;2024-02-14T06:10:17;3.00;99.90
11764;DHT22;5939;56.522;14.950;2024-02-14T06:12:43;3.10;99.90
11764;DHT22;5939;56.522;14.950;2024-02-14T06:15:09;3.10;99.90
11764;DHT22;5939;56.522;14.950;2024-02-14T06:17:35;3.10;99.90
11764;DHT22;5939;56.522;14.950;2024-02-14T06:20:01;3.10;99.90
11764;DHT22;5939;56.522;14.950;2024-02-14T06:22:32;3.10;99.90
11764;DHT22;5939;56.522;14.950;2024-02-14T06:24:59;3.10;99.90
11764;DHT22;5939;56.522;14.950;2024-02-14T06:27:25;3.10;99.90
11764;DHT22;5939;56.522;14.950;2024-02-14T06:29:51;3.10;99.90
11764;DHT22;5939;56.522;14.950;2024-02-14T06:32:18;3.10;99.90
11764;DHT22;5939;56.522;14.950;2024-02-14T06:34:44;3.10;99.90
11764;DHT22;5939;56.522;14.950;2024-02-14T06:37:10;3.10;99.90
11764;DHT22;5939;56.522;14.950;2024-02-14T06:39:35;3.10;99.90
11764;DHT22;5939;56.522;14.950;2024-02-14T06:42:01;3.10;99.90
11764;DHT22;5939;56.522;14.950;2024-02-14T06:44:27;3.10;99.90
11764;DHT22;5939;56.522;14.950;2024-02-14T06:46:52;3.10;99.90
11764;DHT22;5939;56.522;14.950;2024-02-14T06:49:18;3.10;99.90
11764;DHT22;5939;56.522;14.950;2024-02-14T06:51:44;3.10;99.90
11764;DHT22;5939;56.522;14.950;2024-02-14T06:54:10;3.10;99.90
11764;DHT22;5939;56.522;14.950;2024-02-14T06:56:38;3.10;99.90
11764;DHT22;5939;56.522;14.950;2024-02-14T06:59:03;3.10;99.90
11764;DHT22;5939;56.522;14.950;2024-02-14T07:01:30;3.20;99.90
11764;DHT22;5939;56.522;14.950;2024-02-14T07:03:56;3.20;99.90
11764;DHT22;5939;56.522;14.950;2024-02-14T07:06:21;3.20;99.90
11764;DHT22;5939;56.522;14.950;2024-02-14T07:08:48;3.20;99.90
11764;DHT22;5939;56.522;14.950;2024-02-14T07:11:15;3.20;99.90
11764;DHT22;5939;56.522;14.950;2024-02-14T07:13:43;3.20;99.90
11764;DHT22;5939;56.522;14.950;2024-02-14T07:16:09;3.20;99.90
11764;DHT22;5939;56.522;14.950;2024-02-14T07:18:34;3.20;99.90
11764;DHT22;5939;56.522;14.950;2024-02-14T07:21:00;3.20;99.90
11764;DHT22;5939;56.522;14.950;2024-02-14T07:23:27;3.20;99.90
11764;DHT22;5939;56.522;14.950;2024-02-14T07:25:53;3.20;99.90
11764;DHT22;5939;56.522;14.950;2024-02-14T07:28:19;3.20;99.90
11764;DHT22;5939;56.522;14.950;2024-02-14T07:30:44;3.20;99.90
11764;DHT22;5939;56.522;14.950;2024-02-14T07:33:10;3.20;99.90
11764;DHT22;5939;56.522;14.950;2024-02-14T07:35:38;3.20;99.90
11764;DHT22;5939;56.522;14.950;2024-02-14T07:38:05;3.20;99.90
11764;DHT22;5939;56.522;14.950;2024-02-14T07:40:30;3.20;99.90
11764;DHT22;5939;56.522;14.950;2024-02-14T07:43:00;3.20;99.90
11764;DHT22;5939;56.522;14.950;2024-02-14T07:45:26;3.20;99.90
11764;DHT22;5939;56.522;14.950;2024-02-14T07:47:52;3.20;99.90
11764;DHT22;5939;56.522;14.950;2024-02-14T07:50:18;3.20;99.90
11764;DHT22;5939;56.522;14.950;2024-02-14T07:52:44;3.20;99.90
11764;DHT22;5939;56.522;14.950;2024-02-14T07:55:10;3.20;99.90
11764;DHT22;5939;56.522;14.950;2024-02-14T07:57:38;3.20;99.90
11764;DHT22;5939;56.522;14.950;2024-02-14T08:00:08;3.20;99.90
11764;DHT22;5939;56.522;14.950;2024-02-14T08:02:35;3.10;99.90
11764;DHT22;5939;56.522;14.950;2024-02-14T08:05:01;3.20;99.90
11764;DHT22;5939;56.522;14.950;2024-02-14T08:07:27;3.10;99.90
11764;DHT22;5939;56.522;14.950;2024-02-14T08:09:54;3.20;99.90
11764;DHT22;5939;56.522;14.950;2024-02-14T08:12:20;3.20;99.90
11764;DHT22;5939;56.522;14.950;2024-02-14T08:14:47;3.20;99.90
11764;DHT22;5939;56.522;14.950;2024-02-14T08:17:13;3.30;99.90
11764;DHT22;5939;56.522;14.950;2024-02-14T08:19:39;3.20;99.90
11764;DHT22;5939;56.522;14.950;2024-02-14T08:22:05;3.20;99.90
11764;DHT22;5939;56.522;14.950;2024-02-14T08:24:31;3.20;99.90
11764;DHT22;5939;56.522;14.950;2024-02-14T08:26:57;3.20;99.90
11764;DHT22;5939;56.522;14.950;2024-02-14T08:29:23;3.20;99.90
11764;DHT22;5939;56.522;14.950;2024-02-14T08:31:49;3.20;99.90
11764;DHT22;5939;56.522;14.950;2024-02-14T08:34:15;3.20;99.90
11764;DHT22;5939;56.522;14.950;2024-02-14T08:36:42;3.20;99.90
11764;DHT22;5939;56.522;14.950;2024-02-14T08:39:08;3.20;99.90
11764;DHT22;5939;56.522;14.950;2024-02-14T08:41:43;3.20;99.90
11764;DHT22;5939;56.522;14.950;2024-02-14T08:44:10;3.20;99.90
11764;DHT22;5939;56.522;14.950;2024-02-14T08:46:35;3.20;99.90
11764;DHT22;5939;56.522;14.950;2024-02-14T08:49:01;3.20;99.90
11764;DHT22;5939;56.522;14.950;2024-02-14T08:51:28;3.20;99.90
11764;DHT22;5939;56.522;14.950;2024-02-14T08:53:54;3.20;99.90
11764;DHT22;5939;56.522;14.950;2024-02-14T08:56:24;3.20;99.90
11764;DHT22;5939;56.522;14.950;2024-02-14T08:58:50;3.20;99.90
11764;DHT22;5939;56.522;14.950;2024-02-14T09:01:16;3.20;99.90
11764;DHT22;5939;56.522;14.950;2024-02-14T09:03:45;3.20;99.90
11764;DHT22;5939;56.522;14.950;2024-02-14T09:06:15;3.20;99.90
11764;DHT22;5939;56.522;14.950;2024-02-14T09:08:41;3.20;99.90
11764;DHT22;5939;56.522;14.950;2024-02-14T09:11:06;3.20;99.90
11764;DHT22;5939;56.522;14.950;2024-02-14T09:13:33;3.30;99.90
11764;DHT22;5939;56.522;14.950;2024-02-14T09:15:59;3.30;99.90
11764;DHT22;5939;56.522;14.950;2024-02-14T09:18:25;3.30;99.90
11764;DHT22;5939;56.522;14.950;2024-02-14T09:20:51;3.20;99.90
11764;DHT22;5939;56.522;14.950;2024-02-14T09:23:17;3.30;99.90
11764;DHT22;5939;56.522;14.950;2024-02-14T09:25:48;3.20;99.90
11764;DHT22;5939;56.522;14.950;2024-02-14T09:28:15;3.30;99.90
11764;DHT22;5939;56.522;14.950;2024-02-14T09:30:41;3.30;99.90
11764;DHT22;5939;56.522;14.950;2024-02-14T09:33:07;3.30;99.90
11764;DHT22;5939;56.522;14.950;2024-02-14T09:35:33;3.30;99.90
11764;DHT22;5939;56.522;14.950;2024-02-14T09:37:58;3.30;99.90
11764;DHT22;5939;56.522;14.950;2024-02-14T09:40:25;3.30;99.90
11764;DHT22;5939;56.522;14.950;2024-02-14T09:42:55;3.30;99.90
11764;DHT22;5939;56.522;14.950;2024-02-14T09:45:27;3.40;99.90
11764;DHT22;5939;56.522;14.950;2024-02-14T09:47:53;3.30;99.90
11764;DHT22;5939;56.522;14.950;2024-02-14T09:50:20;3.30;99.90
11764;DHT22;5939;56.522;14.950;2024-02-14T09:52:49;3.40;99.90
11764;DHT22;5939;56.522;14.950;2024-02-14T09:55:15;3.40;99.90
11764;DHT22;5939;56.522;14.950;2024-02-14T09:57:42;3.40;99.90
11764;DHT22;5939;56.522;14.950;2024-02-14T10:00:12;3.40;99.90
11764;DHT22;5939;56.522;14.950;2024-02-14T10:02:40;3.40;99.90
11764;DHT22;5939;56.522;14.950;2024-02-14T10:05:07;3.40;99.90
11764;DHT22;5939;56.522;14.950;2024-02-14T10:07:43;3.40;99.90
11764;DHT22;5939;56.522;14.950;2024-02-14T10:10:09;3.40;99.90
11764;DHT22;5939;56.522;14.950;2024-02-14T10:12:35;3.40;99.90
11764;DHT22;5939;56.522;14.950;2024-02-14T10:15:01;3.40;99.90
11764;DHT22;5939;56.522;14.950;2024-02-14T10:17:32;3.40;99.90
11764;DHT22;5939;56.522;14.950;2024-02-14T10:19:59;3.40;99.90
11764;DHT22;5939;56.522;14.950;2024-02-14T10:22:31;3.40;99.90
11764;DHT22;5939;56.522;14.950;2024-02-14T10:24:57;3.40;99.90
11764;DHT22;5939;56.522;14.950;2024-02-14T10:27:23;3.40;99.90
11764;DHT22;5939;56.522;14.950;2024-02-14T10:29:48;3.40;99.90
11764;DHT22;5939;56.522;14.950;2024-02-14T10:32:17;3.40;99.90
11764;DHT22;5939;56.522;14.950;2024-02-14T10:34:43;3.50;99.90
11764;DHT22;5939;56.522;14.950;2024-02-14T10:37:13;3.50;99.90
11764;DHT22;5939;56.522;14.950;2024-02-14T10:39:41;3.50;99.90
11764;DHT22;5939;56.522;14.950;2024-02-14T10:42:07;3.50;99.90
11764;DHT22;5939;56.522;14.950;2024-02-14T10:44:34;3.50;99.90
11764;DHT22;5939;56.522;14.950;2024-02-14T10:47:02;3.50;99.90
11764;DHT22;5939;56.522;14.950;2024-02-14T10:49:29;3.50;99.90
11764;DHT22;5939;56.522;14.950;2024-02-14T10:51:56;3.50;99.90
11764;DHT22;5939;56.522;14.950;2024-02-14T10:54:25;3.50;99.90
11764;DHT22;5939;56.522;14.950;2024-02-14T10:56:53;3.50;99.90
11764;DHT22;5939;56.522;14.950;2024-02-14T10:59:23;3.50;99.90
11764;DHT22;5939;56.522;14.950;2024-02-14T11:01:49;3.50;99.90
11764;DHT22;5939;56.522;14.950;2024-02-14T11:04:17;3.50;99.90
11764;DHT22;5939;56.522;14.950;2024-02-14T11:06:47;3.50;99.90
11764;DHT22;5939;56.522;14.950;2024-02-14T11:09:14;3.50;99.90
11764;DHT22;5939;56.522;14.950;2024-02-14T11:11:42;3.50;99.90
11764;DHT22;5939;56.522;14.950;2024-02-14T11:14:15;3.50;99.90
11764;DHT22;5939;56.522;14.950;2024-02-14T11:16:44;3.50;99.90
11764;DHT22;5939;56.522;14.950;2024-02-14T11:19:11;3.60;99.90
11764;DHT22;5939;56.522;14.950;2024-02-14T11:21:43;3.50;99.90
11764;DHT22;5939;56.522;14.950;2024-02-14T11:24:13;3.60;99.90
11764;DHT22;5939;56.522;14.950;2024-02-14T11:26:52;3.60;99.90
11764;DHT22;5939;56.522;14.950;2024-02-14T11:29:18;3.60;99.90
11764;DHT22;5939;56.522;14.950;2024-02-14T11:31:45;3.60;99.90
11764;DHT22;5939;56.522;14.950;2024-02-14T11:34:14;3.60;99.90
11764;DHT22;5939;56.522;14.950;2024-02-14T11:36:45;3.60;99.90
11764;DHT22;5939;56.522;14.950;2024-02-14T11:39:11;3.60;99.90
11764;DHT22;5939;56.522;14.950;2024-02-14T11:41:41;3.60;99.90
11764;DHT22;5939;56.522;14.950;2024-02-14T11:44:09;3.60;99.90
11764;DHT22;5939;56.522;14.950;2024-02-14T11:46:36;3.60;99.90
11764;DHT22;5939;56.522;14.950;2024-02-14T11:49:03;3.60;99.90
11764;DHT22;5939;56.522;14.950;2024-02-14T11:51:38;3.70;99.90
11764;DHT22;5939;56.522;14.950;2024-02-14T11:54:05;3.70;99.90
11764;DHT22;5939;56.522;14.950;2024-02-14T11:56:39;3.70;99.90
11764;DHT22;5939;56.522;14.950;2024-02-14T11:59:08;3.70;99.90
11764;DHT22;5939;56.522;14.950;2024-02-14T12:01:36;3.70;99.90
11764;DHT22;5939;56.522;14.950;2024-02-14T12:04:04;3.70;99.90
11764;DHT22;5939;56.522;14.950;2024-02-14T12:06:31;3.70;99.90
11764;DHT22;5939;56.522;14.950;2024-02-14T12:09:01;3.80;99.90
11764;DHT22;5939;56.522;14.950;2024-02-14T12:11:33;3.70;99.90
11764;DHT22;5939;56.522;14.950;2024-02-14T12:14:03;3.70;99.90
11764;DHT22;5939;56.522;14.950;2024-02-14T12:16:29;3.80;99.90
11764;DHT22;5939;56.522;14.950;2024-02-14T12:19:09;3.80;99.90
11764;DHT22;5939;56.522;14.950;2024-02-14T12:21:39;3.70;99.90
11764;DHT22;5939;56.522;14.950;2024-02-14T12:24:11;3.80;99.90
11764;DHT22;5939;56.522;14.950;2024-02-14T12:26:41;3.90;99.90
11764;DHT22;5939;56.522;14.950;2024-02-14T12:29:08;3.80;99.90
11764;DHT22;5939;56.522;14.950;2024-02-14T12:31:34;3.80;99.90
11764;DHT22;5939;56.522;14.950;2024-02-14T12:34:02;3.80;99.90
11764;DHT22;5939;56.522;14.950;2024-02-14T12:36:30;3.80;99.90
11764;DHT22;5939;56.522;14.950;2024-02-14T12:38:56;3.90;99.90
11764;DHT22;5939;56.522;14.950;2024-02-14T12:41:22;3.80;99.90
11764;DHT22;5939;56.522;14.950;2024-02-14T12:44:00;3.80;99.90
11764;DHT22;5939;56.522;14.950;2024-02-14T12:46:26;3.90;99.90
11764;DHT22;5939;56.522;14.950;2024-02-14T12:48:51;3.90;99.90
11764;DHT22;5939;56.522;14.950;2024-02-14T12:51:17;3.80;99.90
11764;DHT22;5939;56.522;14.950;2024-02-14T12:53:43;3.90;99.90
11764;DHT22;5939;56.522;14.950;2024-02-14T12:56:09;3.90;99.90
11764;DHT22;5939;56.522;14.950;2024-02-14T12:58:35;3.90;99.90
11764;DHT22;5939;56.522;14.950;2024-02-14T13:01:01;3.90;99.90
11764;DHT22;5939;56.522;14.950;2024-02-14T13:03:31;3.90;99.90
11764;DHT22;5939;56.522;14.950;2024-02-14T13:05:57;3.90;99.90
11764;DHT22;5939;56.522;14.950;2024-02-14T13:08:22;3.90;99.90
11764;DHT22;5939;56.522;14.950;2024-02-14T13:10:49;4.00;99.90
11764;DHT22;5939;56.522;14.950;2024-02-14T13:13:15;4.00;99.90
11764;DHT22;5939;56.522;14.950;2024-02-14T13:15:40;4.00;99.90
11764;DHT22;5939;56.522;14.950;2024-02-14T13:18:08;4.00;99.90
11764;DHT22;5939;56.522;14.950;2024-02-14T13:20:34;4.00;99.90
11764;DHT22;5939;56.522;14.950;2024-02-14T13:22:59;4.00;99.90
11764;DHT22;5939;56.522;14.950;2024-02-14T13:25:25;4.00;99.90
11764;DHT22;5939;56.522;14.950;2024-02-14T13:27:51;4.00;99.90
11764;DHT22;5939;56.522;14.950;2024-02-14T13:30:17;4.10;99.90
11764;DHT22;5939;56.522;14.950;2024-02-14T13:32:44;4.00;99.90
11764;DHT22;5939;56.522;14.950;2024-02-14T13:35:09;4.00;99.90
11764;DHT22;5939;56.522;14.950;2024-02-14T13:37:37;4.10;99.90
11764;DHT22;5939;56.522;14.950;2024-02-14T13:40:02;4.10;99.90
11764;DHT22;5939;56.522;14.950;2024-02-14T13:42:30;4.10;99.90
11764;DHT22;5939;56.522;14.950;2024-02-14T13:44:55;4.00;99.90
11764;DHT22;5939;56.522;14.950;2024-02-14T13:47:21;4.10;99.90
11764;DHT22;5939;56.522;14.950;2024-02-14T13:49:48;4.10;99.90
11764;DHT22;5939;56.522;14.950;2024-02-14T13:52:14;4.10;99.90
11764;DHT22;5939;56.522;14.950;2024-02-14T13:54:41;4.10;99.90
11764;DHT22;5939;56.522;14.950;2024-02-14T13:57:07;4.10;99.90
11764;DHT22;5939;56.522;14.950;2024-02-14T13:59:32;4.10;99.90
11764;DHT22;5939;56.522;14.950;2024-02-14T14:01:58;4.10;99.90
11764;DHT22;5939;56.522;14.950;2024-02-14T14:04:24;4.10;99.90
11764;DHT22;5939;56.522;14.950;2024-02-14T14:06:51;4.10;99.90
11764;DHT22;5939;56.522;14.950;2024-02-14T14:09:17;4.20;99.90
11764;DHT22;5939;56.522;14.950;2024-02-14T14:11:42;4.10;99.90
11764;DHT22;5939;56.522;14.950;2024-02-14T14:14:08;4.20;99.90
11764;DHT22;5939;56.522;14.950;2024-02-14T14:16:36;4.20;99.90
11764;DHT22;5939;56.522;14.950;2024-02-14T14:19:02;4.20;99.90
11764;DHT22;5939;56.522;14.950;2024-02-14T14:21:29;4.20;99.90
11764;DHT22;5939;56.522;14.950;2024-02-14T14:23:54;4.20;99.90
11764;DHT22;5939;56.522;14.950;2024-02-14T14:26:20;4.20;99.90
11764;DHT22;5939;56.522;14.950;2024-02-14T14:28:46;4.20;99.90
11764;DHT22;5939;56.522;14.950;2024-02-14T14:31:12;4.20;99.90
11764;DHT22;5939;56.522;14.950;2024-02-14T14:33:38;4.20;99.90
11764;DHT22;5939;56.522;14.950;2024-02-14T14:36:04;4.20;99.90
11764;DHT22;5939;56.522;14.950;2024-02-14T14:38:30;4.20;99.90
11764;DHT22;5939;56.522;14.950;2024-02-14T14:40:56;4.20;99.90
11764;DHT22;5939;56.522;14.950;2024-02-14T14:43:22;4.20;99.90
11764;DHT22;5939;56.522;14.950;2024-02-14T14:45:48;4.20;99.90
11764;DHT22;5939;56.522;14.950;2024-02-14T14:48:15;4.20;99.90
11764;DHT22;5939;56.522;14.950;2024-02-14T14:50:41;4.20;99.90
11764;DHT22;5939;56.522;14.950;2024-02-14T14:53:07;4.20;99.90
11764;DHT22;5939;56.522;14.950;2024-02-14T14:55:56;4.20;99.90
11764;DHT22;5939;56.522;14.950;2024-02-14T14:58:23;4.30;99.90
11764;DHT22;5939;56.522;14.950;2024-02-14T15:01:01;4.30;99.90
11764;DHT22;5939;56.522;14.950;2024-02-14T15:03:29;4.20;99.90
11764;DHT22;5939;56.522;14.950;2024-02-14T15:05:55;4.20;99.90
11764;DHT22;5939;56.522;14.950;2024-02-14T15:08:20;4.30;99.90
11764;DHT22;5939;56.522;14.950;2024-02-14T15:10:54;4.20;99.90
11764;DHT22;5939;56.522;14.950;2024-02-14T15:13:21;4.30;99.90
11764;DHT22;5939;56.522;14.950;2024-02-14T15:15:47;4.20;99.90
11764;DHT22;5939;56.522;14.950;2024-02-14T15:18:12;4.30;99.90
11764;DHT22;5939;56.522;14.950;2024-02-14T15:20:38;4.20;99.90
11764;DHT22;5939;56.522;14.950;2024-02-14T15:23:04;4.30;99.90
11764;DHT22;5939;56.522;14.950;2024-02-14T15:25:29;4.30;99.90
11764;DHT22;5939;56.522;14.950;2024-02-14T15:27:55;4.30;99.90
11764;DHT22;5939;56.522;14.950;2024-02-14T15:30:24;4.30;99.90
11764;DHT22;5939;56.522;14.950;2024-02-14T15:33:09;4.30;99.90
11764;DHT22;5939;56.522;14.950;2024-02-14T15:35:55;4.30;99.90
11764;DHT22;5939;56.522;14.950;2024-02-14T15:38:22;4.20;99.90
11764;DHT22;5939;56.522;14.950;2024-02-14T15:40:49;4.30;99.90
11764;DHT22;5939;56.522;14.950;2024-02-14T15:43:18;4.30;99.90